Fehlgeschlagener Start einer Cessna in Kehl- Sundheim

Diskutiere Fehlgeschlagener Start einer Cessna in Kehl- Sundheim im Flugunfälle und Flugunfallforschung Forum im Bereich Luftfahrzeuge allgemein; "Die einmotorige Cessna stürzte nach einem abgebrochenen Startversuch in einen nach der Landebahn verlaufenden Graben. "...

Moderatoren: mcnoch
  1. #1 devastato, 24.07.2013
    devastato

    devastato Flugschüler

    Dabei seit:
    30.04.2012
    Beiträge:
    9
    Zustimmungen:
    0
    Ort:
    Esslingen
  2. Anzeige

    Schau dir mal die beiden Links an:
    diesen Ratgeber und die Flugzeug-Kategorie

    Registrieren bzw. einloggen, um diese und auch andere Anzeigen zu deaktivieren
  3. #2 teletubi, 28.07.2013
    Zuletzt bearbeitet: 28.07.2013
    teletubi

    teletubi Berufspilot

    Dabei seit:
    26.08.2007
    Beiträge:
    75
    Zustimmungen:
    45
    Beruf:
    JA
    Ort:
    012/13,6/NORKU
    Montag Nachmittag,22.07.2013
    Temperaturen bis zu 34 Grad.
    Startbahn 21,
    535 Meter TORA, Grassbahn,versetzte Schwelle weil Bäume und eine Strasse zu überfliegen sind,
    Startstrecke lt Handbuch mit max Gewicht und Asphaltbahn bei 34 Grad Celsius 597 Meter.
    Zuschlag Grassbahn 15%
    Zuschlag Rückenwind 10% pro 2 Knoten.
    Dichtehöhe am Unfalltag: 2691 fuss.

    Wind und Temperatur in Strassburg am Nachmittag:

    METAR LFST 221800Z AUTO 35004KT 300V040 9999 NSC 31/16 Q1014=
    METAR LFST 221730Z AUTO 33005KT 9999 NSC 32/15 Q1014=
    METAR LFST 221700Z AUTO 35005KT 320V040 9999 NSC 33/13 Q1014=
    METAR LFST 221630Z AUTO 32006KT 290V360 9999 NSC 34/13 Q1014=
    METAR LFST 221600Z AUTO 36005KT 330V040 9999 NSC 34/13 Q1014=
    METAR LFST 221530Z AUTO 01006KT 340V050 9999 NSC 34/12 Q1014=
    METAR LFST 221500Z AUTO 34007KT 300V020 9999 NSC 34/11 Q1015=
    METAR LFST 221430Z AUTO 36006KT 320V050 9999 NSC 34/13 Q1015=
    METAR LFST 221400Z AUTO VRB04KT 9999 NSC 33/14 Q1015=
    METAR LFST 221330Z AUTO 32004KT 260V050 9999 NSC 33/14 Q1015=
    METAR LFST 221300Z AUTO VRB04KT 9999 NSC 33/14 Q1016=

    Teletubi
     
    Schramm gefällt das.
  4. halle1

    halle1 Flieger-Ass

    Dabei seit:
    22.11.2004
    Beiträge:
    490
    Zustimmungen:
    42
    Ort:
    Lutherstadt Eisleben
    @Teletubi, geht die Startstrecke nicht über das 50 ft Hindernis? Laut Handbuch ist das doch so. Alles in allem eine knappe Sache.
     
  5. #4 teletubi, 29.07.2013
    teletubi

    teletubi Berufspilot

    Dabei seit:
    26.08.2007
    Beiträge:
    75
    Zustimmungen:
    45
    Beruf:
    JA
    Ort:
    012/13,6/NORKU
    Ja, die Startstrecke ist bis 50ft.
    TORA ist die verfügbare Rollstrecke.
    Die verfügbare Strecke vom Anfang der Bahn bis zur Baumreihe deren Höhe ich nicht kenne, ist 855 Meter.
    Die Anflugkarte verlangt eine Überflughöhe der Baumreihe von 500 ft.
    Elevation ist 452 ft.

    Grüße
    Teletubi
     
  6. #5 devastato, 03.08.2013
    devastato

    devastato Flugschüler

    Dabei seit:
    30.04.2012
    Beiträge:
    9
    Zustimmungen:
    0
    Ort:
    Esslingen
    @teletubi danke
     
Moderatoren: mcnoch
Thema: Fehlgeschlagener Start einer Cessna in Kehl- Sundheim
Besucher kamen mit folgenden Suchen
  1. D-EHOF cessna

Die Seite wird geladen...

Fehlgeschlagener Start einer Cessna in Kehl- Sundheim - Ähnliche Themen

  1. Raketen-Fehlstart auf der Fregatte Sachsen

    Raketen-Fehlstart auf der Fregatte Sachsen: Beim Übungsstart einer SM2- Flugabwehrrakete von der Sachsen hat diese am 21. Juni ihren Startbehälter nicht verlassen und ist an Bord explodiert....
  2. 14.06.2018 Helgoland: Flugzeug schießt über die Startbahn hinaus –

    14.06.2018 Helgoland: Flugzeug schießt über die Startbahn hinaus –: Eine Piper PA-28RT-201T Turbo Arrow 4 mit dem Kennzeichen D-EKAT ist am Donnerstag auf dem Flugplatz Helgoland / Dühne über die Piste...
  3. 737 kurz nach dem Start in Havana abgestürzt

    737 kurz nach dem Start in Havana abgestürzt: In Havanna: Boeing 737 stürzt kurz nach Start ab – 104 Menschen an Bord
  4. Wegen Drohne musste die Start- und Landebahn am Flughafen Köln/Bonn mehrmals gesperrt werden

    Wegen Drohne musste die Start- und Landebahn am Flughafen Köln/Bonn mehrmals gesperrt werden: Eine Standardmeldung, bei der man weiß, dass es ein Hobbypilot war, den man nicht erwischt hat. Drohne fliegt am Flughafen Köln/Bonn: Maschine...
  5. Senkrechtstart Dreamliner

    Senkrechtstart Dreamliner: Kürzlich hat doch ein Dreamliner einen Senkrechtstart hingelegt, wie ist das möglich? Und wie vereinbart sich das mit dem Anstellwinkel? Hat die...
  1. Diese Seite verwendet Cookies um Inhalte zu personalisieren. Außerdem werden auch Cookies von Diensten Dritter gesetzt. Mit dem weiteren Aufenthalt akzeptierst du diesen Einsatz von Cookies.
    Information ausblenden